Time;durP1;ratioP1;P1;durP2;ratioP2;P2;SDS_P1;SDS_P2;PMS_P1;PMS_P2;Temp;Humidity;BMP_temperature;BMP_pressure;BME280_temperature;BME280_humidity;BME280_pressure;Samples;Min_cycle;Max_cycle;Signal;HPM_P1;HPM_P2
2021/12/05 00:19:29;;;;;;;17.02;9.20;;;4.90;99.90;;;;;;4987029;28;20597;-73
2021/12/05 00:22:13;;;;;;;16.48;8.10;;;4.90;99.90;;;;;;4985835;28;20046;-73
2021/12/05 00:24:45;;;;;;;19.80;8.75;;;4.90;99.90;;;;;;4979688;28;20430;-73
2021/12/05 00:27:19;;;;;;;13.98;8.00;;;4.90;99.90;;;;;;4991525;28;20057;-73
2021/12/05 00:36:13;;;;;;;16.30;7.85;;;4.90;99.90;;;;;;4910005;28;20052;-73
2021/12/05 00:38:59;;;;;;;15.27;7.82;;;4.90;99.90;;;;;;4986542;28;20061;-73
2021/12/05 00:46:23;;;;;;;15.00;7.60;;;4.80;99.90;;;;;;4990565;28;20046;-73
2021/12/05 00:56:44;;;;;;;13.40;7.65;;;4.90;99.90;;;;;;4986752;28;20344;-73
2021/12/05 00:59:33;;;;;;;16.25;8.27;;;4.90;99.90;;;;;;4984752;28;20061;-73
2021/12/05 01:02:15;;;;;;;19.60;8.73;;;4.90;99.90;;;;;;4988176;28;20069;-73
2021/12/05 01:05:39;;;;;;;15.00;8.18;;;4.90;99.90;;;;;;4987942;28;20061;-73
2021/12/05 01:08:19;;;;;;;13.65;7.78;;;4.80;99.90;;;;;;4976677;28;20057;-73
2021/12/05 01:10:57;;;;;;;15.32;8.15;;;4.90;99.90;;;;;;4986040;28;20560;-73
2021/12/05 01:16:28;;;;;;;16.30;9.00;;;4.90;99.90;;;;;;4931221;29;20051;-73
2021/12/05 01:18:54;;;;;;;18.42;9.35;;;4.90;99.90;;;;;;4976685;28;20058;-73
2021/12/05 01:21:22;;;;;;;14.75;8.77;;;4.90;99.90;;;;;;4988827;28;20042;-73
2021/12/05 01:24:00;;;;;;;14.68;8.55;;;4.80;99.90;;;;;;4987541;28;20078;-73
2021/12/05 01:29:32;;;;;;;14.15;9.98;;;4.80;99.90;;;;;;4990119;28;20074;-73
2021/12/05 01:32:09;;;;;;;18.23;9.90;;;4.80;99.90;;;;;;4988764;28;20077;-73
2021/12/05 01:37:26;;;;;;;;;;;4.80;99.90;;;;;;4988371;28;20050;-73
2021/12/05 01:50:14;;;;;;;21.38;13.98;;;4.80;99.90;;;;;;5001641;28;20053;-73
2021/12/05 01:53:03;;;;;;;24.38;14.65;;;4.80;99.90;;;;;;4987284;28;20046;-73
2021/12/05 01:55:50;;;;;;;29.25;15.85;;;4.80;99.90;;;;;;4985891;28;20054;-73
2021/12/05 02:09:40;;;;;;;30.08;19.40;;;4.90;99.90;;;;;;4987867;28;20482;-73
2021/12/05 02:31:32;;;;;;;31.95;18.77;;;4.90;99.90;;;;;;4987814;28;20050;-73
2021/12/05 02:36:57;;;;;;;30.77;18.83;;;4.90;99.90;;;;;;4987748;28;20406;-73
2021/12/05 02:42:15;;;;;;;24.98;17.17;;;4.90;99.90;;;;;;4984403;28;20074;-73
2021/12/05 02:44:43;;;;;;;33.63;17.70;;;4.90;99.90;;;;;;4986014;28;20046;-73
2021/12/05 02:47:16;;;;;;;29.95;16.38;;;4.90;99.90;;;;;;4976577;28;20034;-73
2021/12/05 02:49:46;;;;;;;26.92;15.82;;;4.90;99.90;;;;;;4985090;28;20117;-73
2021/12/05 02:52:23;;;;;;;28.38;16.95;;;5.00;99.90;;;;;;4986646;28;20071;-73
2021/12/05 02:54:52;;;;;;;;;;;5.00;99.90;;;;;;4984935;28;20050;-73
2021/12/05 02:58:13;;;;;;;29.30;15.52;;;4.90;99.90;;;;;;4985397;28;20288;-73
2021/12/05 03:00:09;;;;;;;23.08;13.65;;;4.90;99.90;;;;;;4977248;28;20058;-73
2021/12/05 03:02:40;;;;;;;24.42;14.25;;;5.00;99.90;;;;;;4983724;28;20120;-73
2021/12/05 03:05:11;;;;;;;27.55;13.32;;;5.00;99.90;;;;;;4982703;28;20058;-73
2021/12/05 03:07:40;;;;;;;27.88;14.10;;;5.00;99.90;;;;;;4979829;28;20041;-73
2021/12/05 03:10:09;;;;;;;23.83;13.05;;;5.00;99.90;;;;;;4986084;28;20050;-73
2021/12/05 03:12:36;;;;;;;23.38;13.32;;;5.00;99.90;;;;;;4980457;28;20482;-73
2021/12/05 03:15:05;;;;;;;20.70;12.77;;;5.00;99.90;;;;;;4984831;28;20069;-72
2021/12/05 03:17:31;;;;;;;23.90;12.73;;;4.90;99.90;;;;;;4985801;28;20061;-73
2021/12/05 03:19:57;;;;;;;28.13;12.52;;;5.00;99.90;;;;;;4984919;28;20678;-73
2021/12/05 03:22:23;;;;;;;23.30;12.80;;;5.00;99.90;;;;;;4985847;28;20030;-73
2021/12/05 03:24:48;;;;;;;24.63;11.98;;;5.00;99.90;;;;;;4986343;28;20096;-73
2021/12/05 03:27:14;;;;;;;26.08;11.25;;;5.00;99.90;;;;;;4985933;28;20042;-73
2021/12/05 03:29:40;;;;;;;23.90;11.05;;;5.00;99.90;;;;;;4984553;28;20042;-73
2021/12/05 03:32:06;;;;;;;22.95;10.82;;;5.00;99.90;;;;;;4987549;28;20065;-73
2021/12/05 03:34:33;;;;;;;19.63;10.13;;;4.90;99.90;;;;;;4985504;28;20397;-73
2021/12/05 03:37:00;;;;;;;23.93;10.63;;;5.00;99.90;;;;;;4984676;28;20930;-72
2021/12/05 03:39:27;;;;;;;22.27;10.52;;;4.90;99.90;;;;;;4987826;28;20034;-73
2021/12/05 03:41:54;;;;;;;;;;;4.90;99.90;;;;;;4986920;28;20133;-73
2021/12/05 03:44:23;;;;;;;26.47;10.53;;;4.90;99.90;;;;;;4984158;28;19949;-73
2021/12/05 03:46:50;;;;;;;17.48;9.55;;;4.90;99.90;;;;;;4986831;28;20113;-72
2021/12/05 03:49:16;;;;;;;25.48;8.95;;;4.90;99.90;;;;;;4988758;28;20046;-73
2021/12/05 03:51:48;;;;;;;22.27;9.63;;;4.90;99.90;;;;;;4986035;28;20129;-74
2021/12/05 03:54:14;;;;;;;23.40;9.85;;;4.90;99.90;;;;;;4983388;28;20626;-73
2021/12/05 03:56:40;;;;;;;21.95;10.13;;;4.80;99.90;;;;;;4984697;28;20074;-73
2021/12/05 03:59:08;;;;;;;21.30;9.32;;;4.80;99.90;;;;;;4985116;28;20043;-73
2021/12/05 04:01:35;;;;;;;22.67;9.85;;;4.80;99.90;;;;;;4985467;28;20042;-73
2021/12/05 04:04:01;;;;;;;23.80;9.63;;;4.80;99.90;;;;;;4986586;28;20042;-73
2021/12/05 04:06:28;;;;;;;19.27;9.65;;;4.80;99.90;;;;;;4989580;28;20045;-73
2021/12/05 04:08:56;;;;;;;21.00;9.30;;;4.80;99.90;;;;;;4986150;28;20110;-73
2021/12/05 04:11:29;;;;;;;20.83;9.00;;;4.70;99.90;;;;;;4988241;28;20053;-73
2021/12/05 04:13:55;;;;;;;21.17;8.98;;;4.70;99.90;;;;;;4988006;28;20053;-73
2021/12/05 04:16:22;;;;;;;22.45;9.02;;;4.70;99.90;;;;;;4989817;28;20038;-72
2021/12/05 04:18:48;;;;;;;18.65;8.88;;;4.70;99.90;;;;;;4989851;28;20636;-72
2021/12/05 04:21:16;;;;;;;18.50;8.52;;;4.70;99.90;;;;;;4988553;28;20097;-72
2021/12/05 04:23:43;;;;;;;23.08;9.45;;;4.70;99.90;;;;;;4986611;28;20034;-72
2021/12/05 04:26:09;;;;;;;20.58;8.43;;;4.70;99.90;;;;;;4989514;28;20049;-73
2021/12/05 04:28:36;;;;;;;19.98;8.48;;;4.60;99.90;;;;;;4983662;28;20445;-73
2021/12/05 04:31:03;;;;;;;16.98;8.48;;;4.60;99.90;;;;;;4986750;28;20061;-72
2021/12/05 04:33:29;;;;;;;21.40;7.68;;;4.50;99.90;;;;;;4989753;28;20060;-72
2021/12/05 04:35:55;;;;;;;20.17;8.27;;;4.60;99.90;;;;;;4989383;28;20482;-72
2021/12/05 04:38:20;;;;;;;19.95;8.07;;;4.50;99.90;;;;;;4987466;28;20057;-73
2021/12/05 04:40:49;;;;;;;19.35;7.93;;;4.50;99.90;;;;;;4988118;28;20062;-72
2021/12/05 04:43:14;;;;;;;23.15;9.23;;;4.50;99.90;;;;;;4977796;28;20047;-72
2021/12/05 04:45:40;;;;;;;22.63;8.93;;;4.50;99.90;;;;;;4985246;28;20502;-72
2021/12/05 04:48:07;;;;;;;23.77;8.93;;;4.50;99.90;;;;;;4985768;28;20152;-72
2021/12/05 04:50:33;;;;;;;24.92;8.60;;;4.50;99.90;;;;;;4992200;28;20053;-73
2021/12/05 04:53:00;;;;;;;20.98;9.82;;;4.50;99.90;;;;;;4987757;28;20082;-72
2021/12/05 04:55:27;;;;;;;23.70;9.63;;;4.40;99.90;;;;;;4987622;28;20125;-72
2021/12/05 04:57:53;;;;;;;21.95;10.70;;;4.40;99.90;;;;;;4987704;28;20046;-72
2021/12/05 05:00:23;;;;;;;22.20;9.45;;;4.40;99.90;;;;;;4988211;28;20402;-73
2021/12/05 05:02:49;;;;;;;23.08;10.48;;;4.40;99.90;;;;;;4986749;28;20054;-72
2021/12/05 05:05:15;;;;;;;22.15;9.77;;;4.40;99.90;;;;;;4988367;28;20117;-72
2021/12/05 05:07:43;;;;;;;21.45;9.40;;;4.30;99.90;;;;;;4988057;28;20137;-72
2021/12/05 05:10:23;;;;;;;20.10;8.63;;;4.30;99.90;;;;;;4989114;28;20054;-72
2021/12/05 05:12:49;;;;;;;20.25;9.10;;;4.30;99.90;;;;;;4987174;28;20048;-72
2021/12/05 05:15:21;;;;;;;18.45;8.52;;;4.30;99.90;;;;;;4987941;28;20054;-72
2021/12/05 05:17:50;;;;;;;19.08;8.32;;;4.30;99.90;;;;;;4982601;28;20445;-72
2021/12/05 05:20:40;;;;;;;20.80;8.65;;;4.30;99.90;;;;;;4988189;28;20037;-72
2021/12/05 05:39:39;;;;;;;20.45;7.80;;;4.30;99.90;;;;;;4989291;28;20453;-73
2021/12/05 05:47:39;;;;;;;19.25;7.72;;;4.20;99.90;;;;;;4987505;28;20130;-73
2021/12/05 05:50:05;;;;;;;20.40;7.32;;;4.30;99.90;;;;;;4983111;28;20119;-73
2021/12/05 05:52:32;;;;;;;23.35;7.60;;;4.30;99.90;;;;;;4983801;28;20054;-73
2021/12/05 05:55:00;;;;;;;22.65;8.35;;;4.30;99.90;;;;;;4983999;28;20494;-73
2021/12/05 05:57:57;;;;;;;;;;;4.20;99.90;;;;;;4988374;28;20125;-73
2021/12/05 06:00:29;;;;;;;19.83;7.82;;;4.20;99.90;;;;;;4982396;28;19925;-73
2021/12/05 06:05:39;;;;;;;19.65;7.10;;;4.20;99.90;;;;;;4986382;28;20038;-73
2021/12/05 06:08:05;;;;;;;19.05;7.60;;;4.20;99.90;;;;;;4987714;28;20064;-73
2021/12/05 06:10:32;;;;;;;23.63;7.60;;;4.20;99.90;;;;;;4985320;28;20790;-73
2021/12/05 06:12:58;;;;;;;24.83;7.80;;;4.20;99.90;;;;;;4984913;28;20065;-73
2021/12/05 06:15:26;;;;;;;23.52;8.20;;;4.20;99.90;;;;;;4988402;28;20042;-72
2021/12/05 06:17:55;;;;;;;;;;;4.20;99.90;;;;;;4986203;28;20054;-73
2021/12/05 06:20:25;;;;;;;20.70;8.30;;;4.20;99.90;;;;;;4986722;28;19922;-73
2021/12/05 06:22:52;;;;;;;21.33;8.05;;;4.20;99.90;;;;;;4984591;28;20057;-73
2021/12/05 06:25:23;;;;;;;23.00;9.38;;;4.20;99.90;;;;;;4983786;28;20524;-73
2021/12/05 06:27:55;;;;;;;22.65;8.95;;;4.20;99.90;;;;;;4986514;28;20050;-72
2021/12/05 06:41:46;;;;;;;23.90;10.70;;;4.30;99.90;;;;;;4986381;28;20423;-73
2021/12/05 06:46:56;;;;;;;22.42;10.70;;;4.40;99.90;;;;;;4986370;28;20070;-73
2021/12/05 06:49:22;;;;;;;19.38;10.75;;;4.30;99.90;;;;;;5002394;28;20066;-73
2021/12/05 06:51:48;;;;;;;26.15;11.20;;;4.40;99.90;;;;;;4986834;28;20825;-73
2021/12/05 06:54:14;;;;;;;20.85;11.65;;;4.40;99.90;;;;;;4985407;28;20043;-73
2021/12/05 06:56:39;;;;;;;24.15;11.40;;;4.40;99.90;;;;;;4984504;28;20053;-73
2021/12/05 06:59:05;;;;;;;25.42;12.10;;;4.40;99.90;;;;;;4984368;28;20030;-73
2021/12/05 07:01:31;;;;;;;20.60;11.35;;;4.40;99.90;;;;;;4982151;28;20050;-73
2021/12/05 07:04:02;;;;;;;20.92;11.52;;;4.40;99.90;;;;;;4984874;28;20045;-73
2021/12/05 07:06:30;;;;;;;21.83;11.60;;;4.50;99.90;;;;;;4985161;28;20108;-73
2021/12/05 07:09:05;;;;;;;23.20;11.40;;;4.50;99.90;;;;;;4982561;28;20058;-73
2021/12/05 07:11:53;;;;;;;24.88;12.32;;;4.40;99.90;;;;;;4986290;28;20184;-73
2021/12/05 07:14:43;;;;;;;21.25;11.48;;;4.50;99.90;;;;;;4984967;28;20054;-73
2021/12/05 07:19:57;;;;;;;21.75;10.68;;;4.50;99.90;;;;;;4985897;28;20524;-73
2021/12/05 07:22:35;;;;;;;22.33;11.65;;;4.50;99.90;;;;;;4984034;28;20050;-73
2021/12/05 07:25:11;;;;;;;24.95;12.18;;;4.50;99.90;;;;;;4986393;28;20061;-73
2021/12/05 07:43:40;;;;;;;20.88;12.98;;;4.60;99.90;;;;;;4983512;28;20053;-73
2021/12/05 07:46:07;;;;;;;23.50;13.02;;;4.60;99.90;;;;;;4985225;28;20042;-73
2021/12/05 07:48:35;;;;;;;22.10;12.60;;;4.60;99.90;;;;;;4981754;28;20519;-73
2021/12/05 07:51:45;;;;;;;25.23;13.75;;;4.60;99.90;;;;;;4985952;28;20046;-73
2021/12/05 07:54:10;;;;;;;23.23;13.80;;;4.70;99.90;;;;;;4981913;28;20058;-73
2021/12/05 07:56:45;;;;;;;24.95;14.38;;;4.60;99.90;;;;;;4986999;28;20038;-72
2021/12/05 07:59:23;;;;;;;27.77;14.20;;;4.70;99.90;;;;;;4984869;28;20054;-73
2021/12/05 08:16:01;;;;;;;27.38;16.35;;;4.80;99.90;;;;;;4983518;28;20050;-71
2021/12/05 08:18:28;;;;;;;33.17;15.60;;;4.80;99.90;;;;;;4979681;28;20066;-72
2021/12/05 08:20:54;;;;;;;26.00;17.48;;;4.80;99.90;;;;;;4984982;28;20482;-75
2021/12/05 08:23:23;;;;;;;31.73;19.38;;;4.80;99.90;;;;;;4985930;28;20050;-75
2021/12/05 08:25:56;;;;;;;38.30;22.38;;;4.90;99.90;;;;;;4983726;28;20054;-74
2021/12/05 08:28:44;;;;;;;43.30;25.42;;;4.90;99.90;;;;;;4989044;28;20073;-75
2021/12/05 08:33:56;;;;;;;29.92;16.65;;;4.80;99.90;;;;;;4984971;28;20466;-75
2021/12/05 10:08:44;;;;;;;16.52;9.35;;;5.20;99.90;;;;;;4987922;28;20054;-73
2021/12/05 10:16:40;;;;;;;16.55;8.98;;;5.30;99.90;;;;;;4987044;28;20054;-73
2021/12/05 10:38:21;;;;;;;15.70;8.93;;;5.60;99.90;;;;;;4987167;28;20061;-73
2021/12/05 10:43:42;;;;;;;15.43;7.93;;;5.70;99.90;;;;;;4977030;28;20494;-72
2021/12/05 10:46:12;;;;;;;12.98;8.45;;;5.70;99.90;;;;;;4985272;28;20081;-73
2021/12/05 10:48:41;;;;;;;13.80;8.15;;;5.80;99.90;;;;;;4985004;28;20390;-74
2021/12/05 10:51:10;;;;;;;13.70;8.00;;;5.80;99.90;;;;;;4987023;28;20085;-74
2021/12/05 10:53:40;;;;;;;17.27;7.90;;;5.90;99.90;;;;;;4985456;28;20058;-74
2021/12/05 10:56:19;;;;;;;14.07;7.82;;;6.00;99.90;;;;;;4988860;28;20077;-74
2021/12/05 10:59:04;;;;;;;15.75;7.45;;;6.00;99.90;;;;;;4985529;28;20038;-74
2021/12/05 11:01:37;;;;;;;10.27;7.22;;;6.00;99.90;;;;;;4986104;28;20701;-75
2021/12/05 11:04:08;;;;;;;11.90;5.95;;;6.10;99.90;;;;;;4977792;28;20098;-76
2021/12/05 11:06:36;;;;;;;14.02;7.30;;;6.10;99.90;;;;;;4983733;28;20075;-76
2021/12/05 11:09:14;;;;;;;19.45;11.95;;;6.10;99.90;;;;;;4992611;28;20093;-75
2021/12/05 11:11:43;;;;;;;13.05;7.10;;;6.20;99.90;;;;;;4984691;28;20113;-79
2021/12/05 11:14:14;;;;;;;13.63;7.95;;;6.20;99.90;;;;;;4985019;28;20137;-77
2021/12/05 11:16:47;;;;;;;9.52;5.80;;;6.20;99.90;;;;;;4986208;28;20047;-77
2021/12/05 11:19:21;;;;;;;18.92;11.05;;;6.20;99.90;;;;;;4996770;28;20101;-75
2021/12/05 11:21:51;;;;;;;13.50;8.32;;;6.20;99.90;;;;;;4982249;28;20041;-77
2021/12/05 11:24:25;;;;;;;12.43;6.30;;;6.20;99.90;;;;;;4985862;28;20057;-77
2021/12/05 11:27:08;;;;;;;11.88;6.10;;;6.20;99.90;;;;;;4981606;28;20051;-76
2021/12/05 11:30:00;;;;;;;8.00;5.88;;;6.20;99.90;;;;;;4986569;28;20123;-76
2021/12/05 11:32:51;;;;;;;12.02;6.32;;;6.20;99.90;;;;;;4986722;28;20537;-76
2021/12/05 11:35:16;;;;;;;9.05;5.80;;;6.20;99.90;;;;;;4998949;28;20401;-78
2021/12/05 11:37:52;;;;;;;10.05;5.63;;;6.20;99.90;;;;;;4988915;28;20050;-77
2021/12/05 11:40:19;;;;;;;12.50;5.20;;;6.20;99.90;;;;;;4983501;28;20050;-76
2021/12/05 11:43:01;;;;;;;11.13;5.65;;;6.20;99.90;;;;;;4981636;28;20402;-75
2021/12/05 11:45:29;;;;;;;9.90;5.47;;;6.20;99.90;;;;;;4967996;28;20146;-76
2021/12/05 11:47:55;;;;;;;;;;;6.20;99.90;;;;;;4988261;28;20062;-76
2021/12/05 11:50:35;;;;;;;8.60;5.30;;;6.10;99.90;;;;;;4983419;28;19922;-77
2021/12/05 11:53:02;;;;;;;8.35;5.70;;;6.10;99.90;;;;;;4980730;28;20166;-77
2021/12/05 11:55:31;;;;;;;8.45;4.85;;;6.10;99.90;;;;;;4983153;28;20046;-76
2021/12/05 11:57:57;;;;;;;8.13;5.05;;;6.10;99.90;;;;;;4976935;28;20050;-76
2021/12/05 12:00:23;;;;;;;9.43;5.63;;;6.20;99.90;;;;;;4978934;28;20046;-77
2021/12/05 12:02:50;;;;;;;11.63;5.13;;;6.10;99.90;;;;;;4984977;28;20459;-76
2021/12/05 12:05:21;;;;;;;9.13;5.53;;;6.20;99.90;;;;;;4986967;28;20062;-77
2021/12/05 12:08:02;;;;;;;9.77;4.85;;;6.20;99.90;;;;;;4986427;28;20541;-76
2021/12/05 12:11:01;;;;;;;7.75;4.65;;;6.20;99.90;;;;;;4985434;28;20046;-76
2021/12/05 12:13:38;;;;;;;8.27;4.70;;;6.20;99.90;;;;;;4988167;28;20050;-76
2021/12/05 12:16:07;;;;;;;7.72;4.95;;;6.20;99.90;;;;;;4986194;28;20078;-77
2021/12/05 12:18:38;;;;;;;8.60;4.93;;;6.20;99.90;;;;;;4985515;28;20054;-76
2021/12/05 12:21:16;;;;;;;9.32;5.15;;;6.30;99.90;;;;;;4986785;28;20042;-77
2021/12/05 12:23:42;;;;;;;7.63;5.00;;;6.30;99.90;;;;;;4984152;28;20050;-78
2021/12/05 12:26:09;;;;;;;6.07;4.60;;;6.30;99.90;;;;;;4990708;28;20026;-77
2021/12/05 12:28:35;;;;;;;8.18;5.13;;;6.30;99.90;;;;;;4991287;28;20567;-77
2021/12/05 12:31:12;;;;;;;10.05;5.57;;;6.30;99.90;;;;;;4989749;28;20046;-77
2021/12/05 12:33:53;;;;;;;10.13;5.63;;;6.30;99.90;;;;;;4980723;28;20664;-78
2021/12/05 12:36:44;;;;;;;10.43;5.57;;;6.30;99.90;;;;;;4989535;28;20078;-76
2021/12/05 12:39:15;;;;;;;7.72;5.18;;;6.30;99.90;;;;;;4989163;28;20061;-76
2021/12/05 12:41:43;;;;;;;10.02;5.05;;;6.30;99.90;;;;;;4986810;28;20054;-77
2021/12/05 12:44:08;;;;;;;8.93;5.20;;;6.30;99.90;;;;;;4991257;28;20459;-72
2021/12/05 12:46:41;;;;;;;9.10;4.63;;;6.30;99.90;;;;;;4988043;28;20047;-75
2021/12/05 12:49:15;;;;;;;6.95;4.80;;;6.30;99.90;;;;;;4985484;28;20042;-75
2021/12/05 12:51:51;;;;;;;8.45;4.93;;;6.30;99.90;;;;;;4989128;28;20042;-75
2021/12/05 12:54:35;;;;;;;7.75;4.80;;;6.40;99.90;;;;;;4971529;28;20058;-75
2021/12/05 12:57:15;;;;;;;7.60;4.80;;;6.30;99.90;;;;;;4974793;28;20150;-73
2021/12/05 12:59:55;;;;;;;6.82;4.72;;;6.40;99.90;;;;;;4989583;28;20050;-76
2021/12/05 13:02:30;;;;;;;9.23;5.05;;;6.30;99.90;;;;;;4981968;28;20513;-76
2021/12/05 13:05:17;;;;;;;7.50;4.55;;;6.30;99.90;;;;;;4982925;28;20053;-75
2021/12/05 13:10:23;;;;;;;7.55;4.55;;;6.30;99.90;;;;;;4989929;28;19922;-73
2021/12/05 13:12:54;;;;;;;6.93;5.00;;;6.30;99.90;;;;;;4989719;28;20226;-73
2021/12/05 13:15:28;;;;;;;8.68;4.80;;;6.30;99.90;;;;;;4986224;28;20038;-75
2021/12/05 13:17:59;;;;;;;8.10;4.90;;;6.30;99.90;;;;;;4985337;28;20137;-75
2021/12/05 13:20:29;;;;;;;6.95;4.90;;;6.30;99.90;;;;;;4989478;28;20043;-73
2021/12/05 13:23:06;;;;;;;6.10;4.68;;;6.30;99.90;;;;;;4989888;28;20078;-75
2021/12/05 13:25:36;;;;;;;8.80;5.10;;;6.30;99.90;;;;;;4989008;28;20046;-75
2021/12/05 13:28:40;;;;;;;7.68;4.95;;;6.20;99.90;;;;;;4987898;28;20641;-75
2021/12/05 13:31:31;;;;;;;10.63;5.45;;;6.20;99.90;;;;;;4979141;28;20054;-76
2021/12/05 13:34:18;;;;;;;8.75;5.28;;;6.20;99.90;;;;;;4987684;28;20049;-75
2021/12/05 13:36:49;;;;;;;7.38;5.38;;;6.20;99.90;;;;;;4987751;28;20109;-76
2021/12/05 13:39:47;;;;;;;8.32;5.75;;;6.20;99.90;;;;;;4986083;28;20105;-75
2021/12/05 13:42:41;;;;;;;7.93;6.40;;;6.20;99.90;;;;;;4980318;28;20078;-75
2021/12/05 13:45:12;;;;;;;8.10;5.70;;;6.10;99.90;;;;;;4988063;28;20395;-75
2021/12/05 13:47:52;;;;;;;9.05;5.88;;;6.10;99.90;;;;;;4989060;28;20042;-75
2021/12/05 13:50:25;;;;;;;9.27;6.35;;;6.10;99.90;;;;;;4983458;28;20120;-74
2021/12/05 13:53:03;;;;;;;10.70;6.63;;;6.00;99.90;;;;;;4987210;28;20141;-76
2021/12/05 13:56:03;;;;;;;12.15;7.70;;;6.00;99.90;;;;;;4988260;28;20054;-76
2021/12/05 13:58:32;;;;;;;12.23;8.52;;;6.00;99.90;;;;;;4989049;28;20047;-76
2021/12/05 14:01:18;;;;;;;17.92;13.18;;;6.00;99.90;;;;;;4987507;28;20058;-76
2021/12/05 14:03:59;;;;;;;22.83;16.53;;;6.00;99.90;;;;;;4985867;28;20046;-77
2021/12/05 14:06:47;;;;;;;23.67;15.27;;;5.90;99.90;;;;;;4987262;28;20062;-77
2021/12/05 14:09:24;;;;;;;21.23;13.90;;;5.90;99.90;;;;;;4981320;28;20054;-75
2021/12/05 14:12:10;;;;;;;17.10;12.63;;;5.90;99.90;;;;;;4986122;28;20056;-73
2021/12/05 14:14:43;;;;;;;15.32;10.15;;;5.80;99.90;;;;;;4982672;28;20092;-73
2021/12/05 14:17:17;;;;;;;11.10;7.80;;;5.90;99.90;;;;;;4970100;28;20062;-73
2021/12/05 14:20:05;;;;;;;10.82;7.20;;;5.90;99.90;;;;;;4968741;28;20490;-73
2021/12/05 14:22:33;;;;;;;10.63;7.75;;;5.90;99.90;;;;;;4984042;28;20054;-74
2021/12/05 14:25:04;;;;;;;11.50;7.60;;;5.90;99.90;;;;;;4987399;28;20054;-74
2021/12/05 14:27:33;;;;;;;9.40;7.95;;;5.90;99.90;;;;;;4988151;28;20495;-74
2021/12/05 14:30:00;;;;;;;11.52;8.00;;;5.90;99.90;;;;;;4987880;28;20081;-73
2021/12/05 14:32:30;;;;;;;12.18;8.77;;;5.90;99.90;;;;;;4988203;28;20069;-72
2021/12/05 14:35:01;;;;;;;10.45;8.90;;;5.90;99.90;;;;;;4987605;28;20042;-75
2021/12/05 14:37:33;;;;;;;11.93;8.23;;;5.80;99.90;;;;;;4987534;28;20061;-74
2021/12/05 14:40:03;;;;;;;11.18;8.43;;;5.80;99.90;;;;;;4987867;28;20450;-75
2021/12/05 14:42:30;;;;;;;11.30;8.30;;;5.80;99.90;;;;;;4987476;28;20050;-74
2021/12/05 14:45:04;;;;;;;13.10;8.68;;;5.80;99.90;;;;;;4987671;28;20056;-74
2021/12/05 14:47:33;;;;;;;10.70;8.55;;;5.80;99.90;;;;;;4988401;28;20038;-72
2021/12/05 14:50:03;;;;;;;11.55;8.60;;;5.80;99.90;;;;;;4987275;28;20062;-74
2021/12/05 14:52:32;;;;;;;11.93;8.85;;;5.80;99.90;;;;;;4988227;28;20083;-75
2021/12/05 14:55:00;;;;;;;11.00;8.52;;;5.80;99.90;;;;;;4987097;28;20058;-74
2021/12/05 14:57:32;;;;;;;10.60;8.43;;;5.80;99.90;;;;;;4988636;28;20108;-75
2021/12/05 15:00:09;;;;;;;13.48;11.20;;;5.80;99.90;;;;;;4986995;28;20042;-74
2021/12/05 15:02:35;;;;;;;17.63;15.60;;;5.80;99.90;;;;;;4983069;28;20085;-74
2021/12/05 15:05:01;;;;;;;16.20;14.38;;;5.80;99.90;;;;;;4991388;28;20101;-74
2021/12/05 15:07:27;;;;;;;15.20;13.50;;;5.70;99.90;;;;;;4987554;28;20403;-74
2021/12/05 15:09:56;;;;;;;13.88;11.52;;;5.70;99.90;;;;;;4979492;28;20046;-74
2021/12/05 15:12:31;;;;;;;13.52;11.13;;;5.70;99.90;;;;;;4986084;28;20053;-75
2021/12/05 15:15:00;;;;;;;12.90;10.90;;;5.70;99.90;;;;;;4984789;28;20081;-74
2021/12/05 15:17:30;;;;;;;12.18;10.88;;;5.70;99.90;;;;;;4988076;28;20085;-75
2021/12/05 15:19:59;;;;;;;14.93;13.27;;;5.70;99.90;;;;;;4986914;28;20069;-74
2021/12/05 15:22:26;;;;;;;14.70;12.90;;;5.70;99.90;;;;;;4974836;28;20403;-75
2021/12/05 15:24:57;;;;;;;13.45;12.02;;;5.70;99.90;;;;;;4983653;28;20046;-72
2021/12/05 15:27:26;;;;;;;13.45;12.10;;;5.70;99.90;;;;;;4983658;28;20081;-76
2021/12/05 15:29:56;;;;;;;13.25;11.95;;;5.70;99.90;;;;;;4986826;28;20054;-75
2021/12/05 15:32:27;;;;;;;13.32;11.95;;;5.70;99.90;;;;;;4988013;28;20050;-74
2021/12/05 15:35:02;;;;;;;13.60;12.27;;;5.70;99.90;;;;;;4983783;28;20065;-73
2021/12/05 15:37:29;;;;;;;14.68;13.18;;;5.70;99.90;;;;;;4986830;28;20058;-74
2021/12/05 15:39:56;;;;;;;14.45;13.05;;;5.70;99.90;;;;;;4987652;28;20088;-74
2021/12/05 15:42:28;;;;;;;;;;;5.70;99.90;;;;;;4986552;28;20064;-76
2021/12/05 15:44:56;;;;;;;16.25;14.65;;;5.60;99.90;;;;;;4985943;28;19965;-74
2021/12/05 15:47:27;;;;;;;18.15;14.45;;;5.60;99.90;;;;;;4985856;28;20054;-75
2021/12/05 15:50:02;;;;;;;19.20;16.20;;;5.60;99.90;;;;;;4985310;28;20046;-74
2021/12/05 15:52:34;;;;;;;19.88;17.77;;;5.60;99.90;;;;;;4986090;28;20061;-76
2021/12/05 15:55:02;;;;;;;19.60;17.50;;;5.60;99.90;;;;;;4986641;28;20514;-76
2021/12/05 15:57:36;;;;;;;17.45;15.57;;;5.60;99.90;;;;;;4981022;28;20137;-73
2021/12/05 16:00:13;;;;;;;16.63;14.93;;;5.50;99.90;;;;;;4983071;28;20073;-75
2021/12/05 16:02:41;;;;;;;17.15;15.40;;;5.50;99.90;;;;;;4985099;28;20096;-75
2021/12/05 16:05:20;;;;;;;15.35;13.73;;;5.50;99.90;;;;;;4986674;28;20125;-74
2021/12/05 16:07:47;;;;;;;14.50;13.10;;;5.50;99.90;;;;;;4980397;28;20094;-74
2021/12/05 16:10:23;;;;;;;14.23;12.77;;;5.50;99.90;;;;;;4986459;28;20055;-75
2021/12/05 16:12:52;;;;;;;13.32;11.93;;;5.40;99.90;;;;;;4987050;28;20112;-75
2021/12/05 16:15:20;;;;;;;13.57;12.15;;;5.40;99.90;;;;;;4986381;28;20133;-75
2021/12/05 16:17:59;;;;;;;13.45;12.07;;;5.40;99.90;;;;;;4985315;28;20049;-72
2021/12/05 16:20:44;;;;;;;14.30;12.82;;;5.40;99.90;;;;;;4985428;28;20781;-74
2021/12/05 16:23:26;;;;;;;14.70;13.23;;;5.40;99.90;;;;;;4986224;28;20039;-73
2021/12/05 16:26:09;;;;;;;15.65;13.95;;;5.40;99.90;;;;;;4985191;28;20042;-73
2021/12/05 16:28:45;;;;;;;17.77;14.38;;;5.40;99.90;;;;;;4985441;28;20038;-74
2021/12/05 16:31:14;;;;;;;16.55;14.35;;;5.40;99.90;;;;;;4970308;28;20051;-73
2021/12/05 16:33:44;;;;;;;17.38;15.23;;;5.50;99.90;;;;;;4973510;28;20081;-73
2021/12/05 16:36:10;;;;;;;17.10;15.38;;;5.50;99.90;;;;;;4987815;28;20409;-73
2021/12/05 16:38:40;;;;;;;17.10;15.30;;;5.50;99.90;;;;;;4986648;28;20038;-74
2021/12/05 16:41:24;;;;;;;19.92;16.70;;;5.50;99.90;;;;;;4988286;28;20692;-74
2021/12/05 16:44:09;;;;;;;18.17;16.05;;;5.50;99.90;;;;;;4979975;28;20051;-74
2021/12/05 16:47:09;;;;;;;18.08;16.17;;;5.50;99.90;;;;;;4983980;28;20533;-74
2021/12/05 16:49:39;;;;;;;20.65;16.70;;;5.50;99.90;;;;;;4972487;28;20054;-75
2021/12/05 16:52:15;;;;;;;20.02;16.85;;;5.50;99.90;;;;;;4985448;28;20039;-74
2021/12/05 16:54:53;;;;;;;19.90;16.55;;;5.50;99.90;;;;;;4984884;28;20046;-74
2021/12/05 16:57:30;;;;;;;23.08;17.63;;;5.50;99.90;;;;;;4982191;28;20042;-75
2021/12/05 16:59:57;;;;;;;;;;;5.50;99.90;;;;;;4981859;28;20050;-74
2021/12/05 17:02:27;;;;;;;26.33;18.73;;;5.50;99.90;;;;;;4986561;28;19922;-74
2021/12/05 17:05:04;;;;;;;23.45;18.38;;;5.50;99.90;;;;;;4984774;28;20042;-75
2021/12/05 17:07:49;;;;;;;28.70;19.42;;;5.50;99.90;;;;;;4984543;28;20084;-74
2021/12/05 17:10:20;;;;;;;28.92;19.73;;;5.50;99.90;;;;;;4982339;28;20048;-74
2021/12/05 17:12:51;;;;;;;24.52;20.35;;;5.50;99.90;;;;;;4987276;28;20129;-74
2021/12/05 17:15:23;;;;;;;29.40;20.25;;;5.50;99.90;;;;;;4991413;28;20092;-74
2021/12/05 17:17:50;;;;;;;32.95;20.08;;;5.50;99.90;;;;;;4988795;28;20129;-74
2021/12/05 17:20:30;;;;;;;28.65;20.08;;;5.60;99.90;;;;;;4991029;28;20042;-74
2021/12/05 17:23:08;;;;;;;28.58;20.67;;;5.50;99.90;;;;;;4987434;28;20042;-74
2021/12/05 17:25:41;;;;;;;25.88;20.65;;;5.50;99.90;;;;;;4988363;28;20661;-74
2021/12/05 17:28:13;;;;;;;28.15;20.77;;;5.50;99.90;;;;;;4988146;28;20077;-74
2021/12/05 17:30:58;;;;;;;27.17;21.08;;;5.50;99.90;;;;;;4991057;28;20170;-74
2021/12/05 17:33:28;;;;;;;28.73;21.60;;;5.50;99.90;;;;;;4989109;28;20501;-74
2021/12/05 17:35:54;;;;;;;28.70;22.63;;;5.50;99.90;;;;;;4988630;28;20042;-74
2021/12/05 17:38:32;;;;;;;31.52;23.48;;;5.50;99.90;;;;;;4989092;28;20046;-74
2021/12/05 17:40:58;;;;;;;30.85;24.13;;;5.60;99.90;;;;;;4985361;28;20050;-74
2021/12/05 17:43:23;;;;;;;30.77;23.63;;;5.60;99.90;;;;;;4989713;28;20035;-74
2021/12/05 17:45:49;;;;;;;32.25;22.88;;;5.60;99.90;;;;;;4980678;28;20383;-75
2021/12/05 17:48:15;;;;;;;26.63;21.52;;;5.60;99.90;;;;;;4995313;28;20132;-74
2021/12/05 17:50:41;;;;;;;27.80;21.27;;;5.60;99.90;;;;;;4994877;28;20046;-75
2021/12/05 17:53:07;;;;;;;31.13;22.08;;;5.60;99.90;;;;;;4972536;28;20043;-74
2021/12/05 17:55:41;;;;;;;29.92;22.30;;;5.60;99.90;;;;;;4988275;28;20068;-74
2021/12/05 17:58:20;;;;;;;29.58;22.35;;;5.60;99.90;;;;;;4989115;28;20042;-75
2021/12/05 18:00:58;;;;;;;27.50;21.77;;;5.60;99.90;;;;;;4989434;28;20137;-75
2021/12/05 18:03:24;;;;;;;32.50;23.10;;;5.60;99.90;;;;;;4988519;28;20039;-74